Time;durP1;ratioP1;P1;durP2;ratioP2;P2;SDS_P1;SDS_P2;PMS_P1;PMS_P2;Temp;Humidity;BMP_temperature;BMP_pressure;BME280_temperature;BME280_humidity;BME280_pressure;Samples;Min_cycle;Max_cycle;Signal;HPM_P1;HPM_P2
2021/08/11 00:00:59;;;;;;;4.70;4.30;;;21.40;77.00;;;;;;5038582;28;20220;-87
2021/08/11 00:03:25;;;;;;;4.60;4.25;;;21.40;76.90;;;;;;5042848;28;20216;-88
2021/08/11 00:05:51;;;;;;;6.03;4.50;;;21.50;76.40;;;;;;5042669;28;20185;-87
2021/08/11 00:08:17;;;;;;;4.35;4.05;;;21.50;76.40;;;;;;5039251;28;20188;-88
2021/08/11 00:10:42;;;;;;;4.35;4.05;;;21.50;76.30;;;;;;5040891;28;20222;-87
2021/08/11 00:13:08;;;;;;;4.68;4.18;;;21.50;76.00;;;;;;5042327;28;20737;-88
2021/08/11 00:15:34;;;;;;;5.45;4.95;;;21.50;76.40;;;;;;5036614;28;20211;-88
2021/08/11 00:18:00;;;;;;;4.80;4.10;;;21.40;76.50;;;;;;5040115;28;20212;-88
2021/08/11 00:20:25;;;;;;;4.80;4.25;;;21.40;76.10;;;;;;5024918;28;20202;-89
2021/08/11 00:22:51;;;;;;;6.90;4.20;;;21.40;75.80;;;;;;5041504;28;20280;-88
2021/08/11 00:25:18;;;;;;;4.90;4.50;;;21.40;76.00;;;;;;5040775;28;20189;-88
2021/08/11 00:27:43;;;;;;;5.43;4.25;;;21.40;75.80;;;;;;5041931;28;20192;-88
2021/08/11 00:30:09;;;;;;;4.78;4.15;;;21.40;75.80;;;;;;5043090;28;20275;-86
2021/08/11 00:32:35;;;;;;;4.45;4.05;;;21.30;76.30;;;;;;5039974;28;20215;-88
2021/08/11 00:35:01;;;;;;;4.55;4.13;;;21.30;76.40;;;;;;5039449;28;20651;-88
2021/08/11 00:37:27;;;;;;;4.93;4.28;;;21.30;76.30;;;;;;5026278;28;20209;-87
2021/08/11 00:39:54;;;;;;;4.47;4.07;;;21.30;76.20;;;;;;5041097;28;20193;-88
2021/08/11 00:42:20;;;;;;;4.57;4.18;;;21.30;75.60;;;;;;5036807;28;20264;-87
2021/08/11 00:44:46;;;;;;;4.68;4.15;;;21.40;75.20;;;;;;5040767;28;20695;-88
2021/08/11 00:47:11;;;;;;;5.07;4.68;;;21.30;75.70;;;;;;5041110;28;20212;-88
2021/08/11 00:49:41;;;;;;;4.85;4.35;;;21.10;76.60;;;;;;5039971;28;20232;-88
2021/08/11 00:52:07;;;;;;;4.70;4.32;;;21.10;76.70;;;;;;5039329;28;20216;-87
2021/08/11 00:54:34;;;;;;;4.97;4.47;;;21.10;76.70;;;;;;5026256;28;20202;-88
2021/08/11 00:57:00;;;;;;;4.97;4.57;;;21.10;76.80;;;;;;5038781;28;20216;-88
2021/08/11 00:59:28;;;;;;;4.60;4.20;;;21.10;76.50;;;;;;5037456;28;20196;-88
2021/08/11 01:01:54;;;;;;;4.75;4.35;;;21.10;77.10;;;;;;5024483;28;20695;-87
2021/08/11 01:04:20;;;;;;;4.63;4.22;;;21.00;77.90;;;;;;5052600;28;20197;-86
2021/08/11 01:06:47;;;;;;;5.10;4.60;;;21.00;78.10;;;;;;5053396;28;20197;-88
2021/08/11 01:09:15;;;;;;;4.53;3.92;;;20.90;78.50;;;;;;5049152;28;20197;-88
2021/08/11 01:11:44;;;;;;;4.97;4.35;;;20.70;78.80;;;;;;5041839;28;20205;-88
2021/08/11 01:14:15;;;;;;;4.72;4.32;;;20.80;78.50;;;;;;5042553;28;20211;-87
2021/08/11 01:16:41;;;;;;;4.63;4.22;;;20.70;78.60;;;;;;5041787;28;20228;-88
2021/08/11 01:19:07;;;;;;;4.68;3.85;;;20.90;77.70;;;;;;5042221;28;20181;-87
2021/08/11 01:21:47;;;;;;;5.88;4.57;;;20.90;77.40;;;;;;5037229;28;20914;-88
2021/08/11 01:24:22;;;;;;;6.72;4.43;;;20.90;77.80;;;;;;5037923;28;20193;-87
2021/08/11 01:27:27;;;;;;;6.43;4.07;;;20.70;78.80;;;;;;5041346;28;20257;-87
2021/08/11 01:30:08;;;;;;;5.07;4.10;;;20.60;79.00;;;;;;5039418;28;20192;-88
2021/08/11 01:32:58;;;;;;;4.38;3.97;;;20.40;79.70;;;;;;5040786;28;20195;-87
2021/08/11 01:35:52;;;;;;;4.28;3.92;;;20.50;79.50;;;;;;5040423;28;20197;-89
2021/08/11 01:38:20;;;;;;;4.72;4.30;;;20.60;78.70;;;;;;5037963;28;20239;-88
2021/08/11 01:40:58;;;;;;;4.63;4.30;;;20.70;78.80;;;;;;5041510;28;20204;-88
2021/08/11 01:43:29;;;;;;;7.38;4.40;;;20.60;78.40;;;;;;5042273;28;20192;-88
2021/08/11 01:45:57;;;;;;;4.93;4.53;;;20.60;78.20;;;;;;5039002;28;20189;-88
2021/08/11 01:48:30;;;;;;;5.45;4.30;;;20.50;79.20;;;;;;5040747;28;20202;-88
2021/08/11 01:50:57;;;;;;;4.85;4.38;;;20.40;79.30;;;;;;5046792;28;20207;-88
2021/08/11 01:53:25;;;;;;;4.50;4.20;;;20.30;79.60;;;;;;5034001;28;20197;-88
2021/08/11 01:55:54;;;;;;;4.55;4.15;;;20.30;78.70;;;;;;5027092;28;20207;-88
2021/08/11 01:58:24;;;;;;;4.32;3.92;;;20.50;78.50;;;;;;5035980;28;20296;-88
2021/08/11 02:00:53;;;;;;;4.68;4.28;;;20.50;78.30;;;;;;5039733;28;20193;-87
2021/08/11 02:03:20;;;;;;;5.22;3.78;;;20.50;78.00;;;;;;5037998;28;20201;-88
2021/08/11 02:05:46;;;;;;;4.60;4.20;;;20.50;78.10;;;;;;5040648;28;20181;-88
2021/08/11 02:08:15;;;;;;;4.78;4.38;;;20.50;77.50;;;;;;5041385;28;20264;-88
2021/08/11 02:10:42;;;;;;;4.50;4.20;;;20.50;77.10;;;;;;5038189;28;20236;-88
2021/08/11 02:13:09;;;;;;;4.55;4.15;;;20.50;77.40;;;;;;5037984;28;20196;-86
2021/08/11 02:15:36;;;;;;;5.95;4.25;;;20.60;76.90;;;;;;5038732;28;20193;-88
2021/08/11 02:18:03;;;;;;;5.97;4.93;;;20.50;77.10;;;;;;5041903;28;20203;-88
2021/08/11 02:20:29;;;;;;;7.57;4.32;;;20.40;77.30;;;;;;5039011;28;20209;-87
2021/08/11 02:22:55;;;;;;;4.35;3.95;;;20.30;77.90;;;;;;5040271;28;20222;-88
2021/08/11 02:25:21;;;;;;;4.40;3.90;;;20.30;78.00;;;;;;5039594;28;20192;-87
2021/08/11 02:28:15;;;;;;;4.47;4.07;;;20.30;77.50;;;;;;5040485;28;20863;-88
2021/08/11 02:31:17;;;;;;;4.93;4.35;;;20.30;77.70;;;;;;5036974;28;20782;-88
2021/08/11 02:33:54;;;;;;;6.05;4.28;;;20.20;77.90;;;;;;5028104;28;20289;-88
2021/08/11 02:36:29;;;;;;;5.00;4.60;;;20.20;78.00;;;;;;5039563;28;20700;-87
2021/08/11 02:39:00;;;;;;;5.10;4.25;;;20.10;78.20;;;;;;5041001;28;20237;-88
2021/08/11 02:41:52;;;;;;;4.32;4.03;;;20.10;78.50;;;;;;5035817;28;20223;-88
2021/08/11 02:44:32;;;;;;;4.78;4.38;;;20.20;77.90;;;;;;5038025;28;20188;-88
2021/08/11 02:46:58;;;;;;;5.20;4.70;;;20.10;78.50;;;;;;5038106;28;20187;-86
2021/08/11 02:49:29;;;;;;;6.63;5.13;;;20.10;78.20;;;;;;5036467;28;20221;-88
2021/08/11 02:52:00;;;;;;;5.90;4.13;;;20.10;78.80;;;;;;5029050;28;20210;-88
2021/08/11 02:54:27;;;;;;;6.25;4.30;;;19.90;79.20;;;;;;5028299;28;20202;-88
2021/08/11 02:56:54;;;;;;;5.05;4.18;;;19.80;79.30;;;;;;5052854;28;20217;-88
2021/08/11 02:59:22;;;;;;;5.57;4.43;;;19.80;79.50;;;;;;5039447;28;20276;-88
2021/08/11 03:01:49;;;;;;;4.72;4.25;;;19.90;79.40;;;;;;5036346;28;20209;-88
2021/08/11 03:04:15;;;;;;;6.00;4.55;;;19.60;79.70;;;;;;5039710;28;20193;-87
2021/08/11 03:06:42;;;;;;;4.82;4.38;;;19.20;82.20;;;;;;5038345;28;20212;-88
2021/08/11 03:09:08;;;;;;;6.85;4.63;;;19.10;82.80;;;;;;5029685;28;20189;-88
2021/08/11 03:11:35;;;;;;;5.45;4.95;;;19.30;82.70;;;;;;5028175;28;20212;-88
2021/08/11 03:14:02;;;;;;;4.70;4.30;;;19.30;81.40;;;;;;5040520;28;20691;-87
2021/08/11 03:16:29;;;;;;;4.80;4.40;;;19.40;81.10;;;;;;5038443;28;20220;-88
2021/08/11 03:18:54;;;;;;;4.82;4.38;;;19.50;80.60;;;;;;5039084;28;20192;-88
2021/08/11 03:21:20;;;;;;;4.47;4.07;;;19.50;80.10;;;;;;5040431;28;20209;-87
2021/08/11 03:23:46;;;;;;;5.07;4.30;;;19.30;80.30;;;;;;5072186;28;20181;-88
2021/08/11 03:26:12;;;;;;;4.70;4.25;;;19.20;80.80;;;;;;5033895;28;20193;-87
2021/08/11 03:28:38;;;;;;;4.28;3.90;;;19.30;80.90;;;;;;5037325;28;20553;-88
2021/08/11 03:31:04;;;;;;;5.10;4.40;;;19.40;80.50;;;;;;5060626;28;20215;-88
2021/08/11 03:33:30;;;;;;;5.78;4.07;;;19.40;80.70;;;;;;5038304;28;20200;-87
2021/08/11 03:35:55;;;;;;;4.50;4.13;;;19.50;79.40;;;;;;5033431;28;20189;-88
2021/08/11 03:38:21;;;;;;;4.40;4.00;;;19.40;79.30;;;;;;5042758;28;20240;-88
2021/08/11 03:40:47;;;;;;;4.22;3.92;;;19.50;79.40;;;;;;5041621;28;20206;-88
2021/08/11 03:43:12;;;;;;;4.28;3.97;;;19.50;78.80;;;;;;5039240;28;20186;-88
2021/08/11 03:45:38;;;;;;;5.70;4.45;;;19.60;78.50;;;;;;5041206;28;20185;-88
2021/08/11 03:48:04;;;;;;;4.95;4.45;;;19.60;78.50;;;;;;5038825;28;20217;-88
2021/08/11 03:50:30;;;;;;;4.85;4.35;;;19.60;78.70;;;;;;5040219;28;20243;-89
2021/08/11 03:52:55;;;;;;;5.13;4.40;;;19.50;78.90;;;;;;5038423;28;20193;-88
2021/08/11 03:55:21;;;;;;;5.55;4.38;;;19.50;78.90;;;;;;5041819;28;20204;-88
2021/08/11 03:57:47;;;;;;;6.70;4.78;;;19.50;78.90;;;;;;5036949;28;20213;-87
2021/08/11 04:00:13;;;;;;;9.60;4.57;;;19.40;79.40;;;;;;5030265;28;20261;-87
2021/08/11 04:02:39;;;;;;;4.68;4.28;;;19.40;79.40;;;;;;5042989;28;20192;-87
2021/08/11 04:05:07;;;;;;;7.28;4.70;;;19.40;79.60;;;;;;5042422;28;20312;-87
2021/08/11 04:07:35;;;;;;;5.28;4.57;;;19.40;79.40;;;;;;5038803;28;20197;-87
2021/08/11 04:10:03;;;;;;;4.80;4.22;;;19.40;79.80;;;;;;5040365;28;20201;-86
2021/08/11 04:12:28;;;;;;;6.93;4.63;;;19.40;79.70;;;;;;5040038;28;20185;-87
2021/08/11 04:14:54;;;;;;;5.20;4.70;;;19.30;80.30;;;;;;5042513;28;20227;-87
2021/08/11 04:17:20;;;;;;;5.78;4.47;;;19.20;80.50;;;;;;5039129;28;20221;-87
2021/08/11 04:19:45;;;;;;;7.15;4.35;;;19.10;80.80;;;;;;5040042;28;20193;-87
2021/08/11 04:22:11;;;;;;;6.35;4.03;;;19.20;80.00;;;;;;5034608;28;20237;-88
2021/08/11 04:24:37;;;;;;;4.53;4.13;;;19.30;79.70;;;;;;5030064;28;20284;-88
2021/08/11 04:27:02;;;;;;;8.90;8.00;;;19.10;80.60;;;;;;5041165;28;20672;-88
2021/08/11 04:29:28;;;;;;;4.95;4.47;;;19.20;80.90;;;;;;5039734;28;20295;-87
2021/08/11 04:31:54;;;;;;;4.78;4.38;;;19.20;81.00;;;;;;5037289;28;20311;-88
2021/08/11 04:34:19;;;;;;;5.75;4.72;;;19.30;81.60;;;;;;5043298;28;20687;-86
2021/08/11 04:36:45;;;;;;;4.80;4.28;;;19.30;80.80;;;;;;5041376;28;20249;-88
2021/08/11 04:39:11;;;;;;;5.72;4.47;;;19.40;80.20;;;;;;5044512;28;20870;-87
2021/08/11 04:41:36;;;;;;;8.80;4.50;;;19.30;80.20;;;;;;5050919;28;20227;-88
2021/08/11 04:44:03;;;;;;;6.25;4.95;;;19.20;81.20;;;;;;5074396;28;20252;-87
2021/08/11 04:46:29;;;;;;;5.90;4.38;;;19.10;81.80;;;;;;5054905;28;20634;-88
2021/08/11 04:48:54;;;;;;;4.93;4.53;;;19.20;81.50;;;;;;5055224;28;20232;-88
2021/08/11 04:51:21;;;;;;;4.75;4.20;;;19.20;81.40;;;;;;5040823;28;20288;-88
2021/08/11 04:53:46;;;;;;;6.95;4.20;;;19.20;81.50;;;;;;5044959;28;20193;-87
2021/08/11 04:56:12;;;;;;;5.70;4.15;;;19.20;81.80;;;;;;5058575;28;20260;-87
2021/08/11 04:58:38;;;;;;;6.93;4.15;;;19.30;81.30;;;;;;5034880;28;20252;-88
2021/08/11 05:01:04;;;;;;;8.80;4.03;;;19.30;81.10;;;;;;5050049;28;20212;-87
2021/08/11 05:03:35;;;;;;;6.78;4.38;;;19.40;81.10;;;;;;5049375;28;20207;-86
2021/08/11 05:06:00;;;;;;;5.43;4.43;;;19.50;81.10;;;;;;5045144;28;20194;-88
2021/08/11 05:08:26;;;;;;;5.05;4.53;;;19.50;81.20;;;;;;5041473;28;20186;-86
2021/08/11 05:10:52;;;;;;;5.38;4.40;;;19.70;81.20;;;;;;5038944;28;20226;-87
2021/08/11 05:13:17;;;;;;;5.50;4.97;;;19.60;81.20;;;;;;5038900;28;20722;-87
2021/08/11 05:15:43;;;;;;;8.70;5.07;;;19.50;82.60;;;;;;5052976;28;20194;-86
2021/08/11 05:18:09;;;;;;;6.03;5.38;;;19.40;82.60;;;;;;5047854;28;20218;-87
2021/08/11 05:20:34;;;;;;;6.10;5.25;;;19.50;82.30;;;;;;5041387;28;20207;-86
2021/08/11 05:23:00;;;;;;;5.07;4.68;;;19.50;82.70;;;;;;5083564;28;20210;-86
2021/08/11 05:25:26;;;;;;;6.13;4.95;;;19.50;83.50;;;;;;5049971;28;20217;-86
2021/08/11 05:27:52;;;;;;;5.63;5.10;;;19.50;84.20;;;;;;5047009;28;20200;-86
2021/08/11 05:30:17;;;;;;;5.10;4.60;;;19.60;83.70;;;;;;5048250;28;20218;-87
2021/08/11 05:32:43;;;;;;;7.22;4.70;;;19.60;83.30;;;;;;5019553;28;20211;-87
2021/08/11 05:35:09;;;;;;;11.00;4.85;;;19.60;82.80;;;;;;5034016;28;20207;-87
2021/08/11 05:37:34;;;;;;;5.13;4.60;;;19.60;83.10;;;;;;5038484;28;20240;-87
2021/08/11 05:40:00;;;;;;;5.80;4.35;;;19.60;83.50;;;;;;5034602;28;20189;-86
2021/08/11 05:42:26;;;;;;;6.97;6.47;;;19.60;83.30;;;;;;5046740;28;20210;-87
2021/08/11 05:44:51;;;;;;;5.32;4.75;;;19.70;83.20;;;;;;5045769;28;20198;-86
2021/08/11 05:47:18;;;;;;;6.35;4.50;;;19.70;83.60;;;;;;5038239;28;20189;-85
2021/08/11 05:49:43;;;;;;;5.07;4.57;;;19.70;83.50;;;;;;5037885;28;20258;-86
2021/08/11 05:52:09;;;;;;;6.68;4.70;;;19.70;83.80;;;;;;5037198;28;20249;-87
2021/08/11 05:54:36;;;;;;;7.82;5.10;;;19.80;84.00;;;;;;5041184;28;20193;-86
2021/08/11 05:57:03;;;;;;;5.60;5.10;;;19.80;83.80;;;;;;5035300;28;20269;-86
2021/08/11 05:59:29;;;;;;;5.80;5.30;;;19.70;84.30;;;;;;5038068;28;20900;-86
2021/08/11 06:01:55;;;;;;;5.43;4.93;;;19.60;85.10;;;;;;5033374;28;20233;-88
2021/08/11 06:04:22;;;;;;;5.93;5.40;;;19.70;84.80;;;;;;5037208;28;20520;-87
2021/08/11 06:06:49;;;;;;;5.47;4.97;;;19.80;84.80;;;;;;5038587;28;20178;-87
2021/08/11 06:09:15;;;;;;;6.10;5.50;;;19.90;83.80;;;;;;5037988;28;20200;-86
2021/08/11 06:11:41;;;;;;;6.30;4.63;;;19.90;84.00;;;;;;5036555;28;20298;-86
2021/08/11 06:14:06;;;;;;;6.18;5.57;;;20.00;83.70;;;;;;5038053;28;20191;-87
2021/08/11 06:16:32;;;;;;;5.45;5.05;;;20.10;84.10;;;;;;5035254;28;20583;-87
2021/08/11 06:18:58;;;;;;;7.38;5.43;;;20.20;83.90;;;;;;5036233;28;20690;-86
2021/08/11 06:21:25;;;;;;;6.30;5.70;;;20.10;83.90;;;;;;5034898;28;20516;-87
2021/08/11 06:23:54;;;;;;;6.72;6.03;;;20.10;84.70;;;;;;5037121;28;20184;-87
2021/08/11 06:26:21;;;;;;;6.60;5.85;;;20.10;84.50;;;;;;5033644;28;20205;-88
2021/08/11 06:28:47;;;;;;;5.43;4.93;;;20.10;84.20;;;;;;5035629;28;21535;-86
2021/08/11 06:31:17;;;;;;;6.03;5.53;;;20.20;83.00;;;;;;5037261;28;20281;-87
2021/08/11 06:33:46;;;;;;;6.68;6.07;;;20.40;82.20;;;;;;5035362;28;20180;-87
2021/08/11 06:36:12;;;;;;;6.72;6.10;;;20.50;81.70;;;;;;5036681;28;20184;-87
2021/08/11 06:38:38;;;;;;;6.72;6.13;;;20.50;82.60;;;;;;5037254;28;20224;-86
2021/08/11 06:41:04;;;;;;;7.88;5.60;;;20.60;82.10;;;;;;5035611;28;20618;-86
2021/08/11 06:43:30;;;;;;;9.15;5.95;;;20.70;80.80;;;;;;5034343;28;20200;-85
2021/08/11 06:45:56;;;;;;;6.25;5.65;;;20.60;81.70;;;;;;5034471;28;20230;-85
2021/08/11 06:48:22;;;;;;;6.28;5.70;;;20.70;80.90;;;;;;5036287;28;20196;-88
2021/08/11 06:50:49;;;;;;;8.82;6.20;;;20.90;80.00;;;;;;5032719;28;20231;-85
2021/08/11 06:53:14;;;;;;;6.63;5.63;;;21.00;79.20;;;;;;5033730;28;20734;-84
2021/08/11 06:55:40;;;;;;;7.25;6.45;;;21.10;78.60;;;;;;5035580;28;20235;-86
2021/08/11 06:58:06;;;;;;;8.32;6.18;;;21.00;80.00;;;;;;5029158;28;20556;-87
2021/08/11 07:00:31;;;;;;;6.63;6.00;;;21.00;79.90;;;;;;5019720;28;20220;-85
2021/08/11 07:02:57;;;;;;;6.40;5.80;;;21.00;79.50;;;;;;5031640;28;20192;-86
2021/08/11 07:05:23;;;;;;;6.68;6.07;;;20.90;77.90;;;;;;5034082;28;20200;-86
2021/08/11 07:07:49;;;;;;;6.50;5.90;;;21.00;77.60;;;;;;5031317;28;20192;-86
2021/08/11 07:10:15;;;;;;;9.00;6.43;;;21.20;77.40;;;;;;5040451;28;20204;-86
2021/08/11 07:12:42;;;;;;;6.75;5.95;;;21.30;77.10;;;;;;5034351;28;20445;-86
2021/08/11 07:15:10;;;;;;;7.35;6.65;;;21.40;76.30;;;;;;5020196;28;20192;-87
2021/08/11 07:17:36;;;;;;;6.32;5.72;;;21.50;75.10;;;;;;5024200;28;20220;-87
2021/08/11 07:20:11;;;;;;;8.10;5.68;;;21.60;75.20;;;;;;5034905;28;20220;-86
2021/08/11 07:22:36;;;;;;;6.53;6.03;;;21.80;74.90;;;;;;5037772;28;20184;-86
2021/08/11 07:25:02;;;;;;;7.70;6.28;;;21.80;74.80;;;;;;5034094;28;20228;-87
2021/08/11 07:27:28;;;;;;;8.20;6.13;;;21.70;75.00;;;;;;5033788;28;20223;-86
2021/08/11 07:29:54;;;;;;;6.50;5.90;;;21.70;75.40;;;;;;5034927;28;20189;-86
2021/08/11 07:32:19;;;;;;;7.15;6.45;;;21.70;75.10;;;;;;5036402;28;20339;-85
2021/08/11 07:34:45;;;;;;;6.75;6.07;;;21.80;74.50;;;;;;5033623;28;20192;-88
2021/08/11 07:37:11;;;;;;;6.68;6.07;;;22.00;75.00;;;;;;5034689;28;20244;-86
2021/08/11 07:39:36;;;;;;;6.55;5.95;;;22.00;74.90;;;;;;5035982;28;20227;-86
2021/08/11 07:42:02;;;;;;;6.28;5.78;;;22.00;75.50;;;;;;5032058;28;20212;-86
2021/08/11 07:44:28;;;;;;;6.35;5.75;;;22.10;75.10;;;;;;5032216;28;20192;-86
2021/08/11 07:46:54;;;;;;;6.30;5.78;;;22.30;74.00;;;;;;5035044;28;20219;-87
2021/08/11 07:49:19;;;;;;;5.78;5.28;;;22.40;74.50;;;;;;5030972;28;20808;-85
2021/08/11 07:51:45;;;;;;;7.15;5.25;;;22.50;74.20;;;;;;5033927;28;20219;-87
2021/08/11 07:54:11;;;;;;;6.38;5.88;;;22.60;74.30;;;;;;5031582;28;20246;-86
2021/08/11 07:56:37;;;;;;;6.25;5.65;;;22.50;74.40;;;;;;5035386;28;20367;-86
2021/08/11 07:59:02;;;;;;;6.70;6.10;;;22.50;74.80;;;;;;5033981;28;20205;-86
2021/08/11 08:01:28;;;;;;;6.60;5.40;;;22.70;75.90;;;;;;5034489;28;20719;-86
2021/08/11 08:03:54;;;;;;;7.78;5.93;;;22.70;75.60;;;;;;5035923;28;20186;-86
2021/08/11 08:06:19;;;;;;;7.32;6.28;;;22.70;74.60;;;;;;5033947;28;20197;-86
2021/08/11 08:08:45;;;;;;;7.22;6.53;;;22.90;73.90;;;;;;5033183;28;20601;-87
2021/08/11 08:11:11;;;;;;;11.15;6.85;;;23.10;72.10;;;;;;5033744;28;20726;-87
2021/08/11 08:13:36;;;;;;;6.72;6.13;;;23.30;71.40;;;;;;5035082;28;20578;-87
2021/08/11 08:16:02;;;;;;;7.70;5.93;;;23.40;72.50;;;;;;5025531;28;20197;-87
2021/08/11 08:18:28;;;;;;;7.85;6.07;;;23.50;73.50;;;;;;5024899;28;20213;-86
2021/08/11 08:20:55;;;;;;;7.82;5.65;;;23.40;74.10;;;;;;5038833;28;20208;-86
2021/08/11 08:23:22;;;;;;;7.28;6.55;;;23.60;70.60;;;;;;5037738;28;20188;-86
2021/08/11 08:25:48;;;;;;;6.78;5.93;;;23.80;71.60;;;;;;5032948;28;20197;-87
2021/08/11 08:28:14;;;;;;;7.63;6.60;;;23.80;72.90;;;;;;5037356;28;20216;-87
2021/08/11 08:30:41;;;;;;;8.75;6.85;;;24.00;69.50;;;;;;5038591;28;20212;-86
2021/08/11 08:33:07;;;;;;;7.43;6.72;;;24.20;69.00;;;;;;5037851;28;20185;-87
2021/08/11 08:35:33;;;;;;;8.27;7.20;;;24.10;69.30;;;;;;5039150;28;20276;-87
2021/08/11 08:37:59;;;;;;;8.00;7.30;;;24.10;70.60;;;;;;5041785;28;20228;-87
2021/08/11 08:40:31;;;;;;;9.80;8.60;;;24.00;72.00;;;;;;5043912;28;20213;-86
2021/08/11 08:42:57;;;;;;;10.48;8.07;;;24.00;71.30;;;;;;5041960;28;20189;-86
2021/08/11 08:45:23;;;;;;;12.73;8.50;;;24.10;70.90;;;;;;5044752;28;20272;-86
2021/08/11 08:47:49;;;;;;;12.10;8.73;;;24.30;70.10;;;;;;5042102;28;20196;-86
2021/08/11 08:50:18;;;;;;;11.68;8.43;;;24.40;69.90;;;;;;5042066;28;20193;-86
2021/08/11 08:52:44;;;;;;;12.98;8.18;;;24.50;69.90;;;;;;5035363;28;20197;-86
2021/08/11 08:55:11;;;;;;;11.93;8.30;;;24.50;69.50;;;;;;5038023;28;20193;-86
2021/08/11 08:57:36;;;;;;;13.00;7.75;;;24.70;68.50;;;;;;5053779;28;20217;-87
2021/08/11 09:00:10;;;;;;;10.15;8.23;;;24.50;71.00;;;;;;5037238;28;20254;-86
2021/08/11 09:02:40;;;;;;;10.02;7.63;;;24.60;70.40;;;;;;5037142;28;20249;-86
2021/08/11 09:05:10;;;;;;;11.93;8.30;;;24.70;69.10;;;;;;5037213;28;20185;-87
2021/08/11 09:07:47;;;;;;;12.40;7.93;;;25.10;68.10;;;;;;5036956;28;20191;-87
2021/08/11 09:10:30;;;;;;;10.48;7.72;;;25.00;67.70;;;;;;5038088;28;20196;-86
2021/08/11 09:12:59;;;;;;;9.65;8.32;;;25.20;68.60;;;;;;5038698;28;20207;-87
2021/08/11 09:15:34;;;;;;;13.95;7.57;;;25.40;66.10;;;;;;5035585;28;20200;-86
2021/08/11 09:18:11;;;;;;;10.13;7.70;;;25.60;65.50;;;;;;5035679;28;20239;-86
2021/08/11 09:20:37;;;;;;;7.65;6.82;;;25.60;64.80;;;;;;5038915;28;20200;-86
2021/08/11 09:23:03;;;;;;;8.32;7.53;;;25.70;65.20;;;;;;5040521;28;20182;-87
2021/08/11 09:25:28;;;;;;;8.32;6.90;;;25.70;63.20;;;;;;5034348;28;20190;-87
2021/08/11 09:27:54;;;;;;;10.27;8.40;;;25.80;64.00;;;;;;5029953;28;20703;-89
2021/08/11 09:30:24;;;;;;;10.35;7.93;;;25.90;62.00;;;;;;5043143;28;20212;-85
2021/08/11 09:32:54;;;;;;;8.27;7.57;;;26.00;61.50;;;;;;5027422;28;20215;-85
2021/08/11 09:35:26;;;;;;;8.52;7.72;;;25.90;60.90;;;;;;5045159;28;20196;-86
2021/08/11 09:37:59;;;;;;;7.30;6.68;;;26.00;60.90;;;;;;5048106;28;20284;-85
2021/08/11 09:40:26;;;;;;;12.25;7.82;;;25.90;60.30;;;;;;5040360;28;20201;-87
2021/08/11 09:42:57;;;;;;;10.73;7.65;;;25.70;62.20;;;;;;5038059;28;20192;-86
2021/08/11 09:45:25;;;;;;;31.85;9.90;;;25.80;60.60;;;;;;5036967;28;20196;-86
2021/08/11 09:48:02;;;;;;;7.50;6.40;;;25.80;59.50;;;;;;5040504;28;20188;-87
2021/08/11 09:50:46;;;;;;;7.53;6.32;;;26.00;59.60;;;;;;5038956;28;20236;-86
2021/08/11 09:53:16;;;;;;;8.75;6.60;;;26.10;58.90;;;;;;5040238;28;20212;-86
2021/08/11 09:55:57;;;;;;;7.45;6.13;;;26.40;57.60;;;;;;5040870;28;20216;-86
2021/08/11 09:58:23;;;;;;;7.13;6.45;;;26.60;56.30;;;;;;5024653;28;20205;-86
2021/08/11 10:00:49;;;;;;;6.38;5.75;;;26.60;55.50;;;;;;5037437;28;20229;-86
2021/08/11 10:03:15;;;;;;;5.90;5.40;;;26.70;53.60;;;;;;5039838;28;20231;-86
2021/08/11 10:05:40;;;;;;;6.10;5.60;;;26.90;54.10;;;;;;5039714;28;20189;-87
2021/08/11 10:08:06;;;;;;;5.68;5.18;;;27.10;55.10;;;;;;5040841;28;20215;-86
2021/08/11 10:10:49;;;;;;;6.45;5.80;;;27.00;56.60;;;;;;5041651;28;20224;-87
2021/08/11 10:13:17;;;;;;;5.32;4.80;;;27.00;55.90;;;;;;5031852;28;20640;-87
2021/08/11 10:15:44;;;;;;;7.35;4.40;;;27.20;54.00;;;;;;5031810;28;20219;-87
2021/08/11 10:18:11;;;;;;;5.45;4.95;;;27.40;51.00;;;;;;5057510;28;20216;-87
2021/08/11 10:20:38;;;;;;;5.70;5.20;;;27.60;50.30;;;;;;5038548;28;20197;-87
2021/08/11 10:23:05;;;;;;;11.63;5.55;;;27.80;50.10;;;;;;5036998;28;20220;-86
2021/08/11 10:25:31;;;;;;;5.38;4.88;;;28.00;51.20;;;;;;5035858;28;20185;-87
2021/08/11 10:27:57;;;;;;;10.45;4.97;;;28.20;49.60;;;;;;5036839;28;20199;-87
2021/08/11 10:30:23;;;;;;;5.72;5.05;;;28.30;49.00;;;;;;5038552;28;20247;-87
2021/08/11 10:32:50;;;;;;;5.40;4.90;;;28.40;48.70;;;;;;5037041;28;20200;-87
2021/08/11 10:35:16;;;;;;;4.60;4.20;;;28.30;49.40;;;;;;5026681;28;20526;-87
2021/08/11 10:37:44;;;;;;;7.68;5.20;;;28.30;50.10;;;;;;5038754;28;20216;-87
2021/08/11 10:40:10;;;;;;;5.45;4.95;;;28.40;49.40;;;;;;5039895;28;20189;-87
2021/08/11 10:42:36;;;;;;;6.07;4.97;;;28.70;48.10;;;;;;5038440;28;20208;-87
2021/08/11 10:45:03;;;;;;;5.60;5.10;;;28.90;46.90;;;;;;5039635;28;20212;-87
2021/08/11 10:47:34;;;;;;;5.15;4.75;;;29.10;48.40;;;;;;5041393;28;20205;-87
2021/08/11 10:50:05;;;;;;;6.95;5.63;;;28.80;47.40;;;;;;5040367;28;20188;-87
2021/08/11 10:52:31;;;;;;;7.38;5.35;;;29.10;50.00;;;;;;5039589;28;20556;-87
2021/08/11 10:55:06;;;;;;;6.38;5.82;;;29.10;48.20;;;;;;5040415;28;20225;-87
2021/08/11 10:57:35;;;;;;;6.18;5.60;;;28.70;49.90;;;;;;5035551;28;20207;-87
2021/08/11 11:00:01;;;;;;;6.30;5.70;;;28.90;49.30;;;;;;5021493;28;20202;-86
2021/08/11 11:02:40;;;;;;;6.20;5.60;;;28.90;49.30;;;;;;5038935;28;20187;-87
2021/08/11 11:05:07;;;;;;;7.50;5.60;;;28.90;49.60;;;;;;5045428;28;20199;-87
2021/08/11 11:07:34;;;;;;;9.27;5.72;;;29.40;50.10;;;;;;5051253;28;20284;-87
2021/08/11 11:10:26;;;;;;;6.88;5.68;;;29.70;48.40;;;;;;5038928;28;20177;-87
2021/08/11 11:12:52;;;;;;;5.72;5.20;;;29.60;48.00;;;;;;5037771;28;20196;-87
2021/08/11 11:15:49;;;;;;;6.57;5.97;;;29.80;47.20;;;;;;5033999;28;20208;-87
2021/08/11 11:18:22;;;;;;;5.70;5.20;;;30.00;46.30;;;;;;5043792;28;20204;-86
2021/08/11 11:21:00;;;;;;;5.70;5.30;;;30.20;45.40;;;;;;5020050;28;20738;-87
2021/08/11 11:23:43;;;;;;;8.65;5.30;;;30.40;44.90;;;;;;5038198;28;20280;-87
2021/08/11 11:26:14;;;;;;;6.47;4.95;;;29.80;46.00;;;;;;5039286;28;20189;-87
2021/08/11 11:28:54;;;;;;;5.82;5.25;;;30.10;46.30;;;;;;5038806;28;20214;-87
2021/08/11 11:31:31;;;;;;;5.40;5.00;;;30.50;44.80;;;;;;5038901;28;20212;-87
2021/08/11 11:34:36;;;;;;;5.28;4.88;;;30.70;43.90;;;;;;5023247;28;20177;-87
2021/08/11 11:37:02;;;;;;;7.30;5.20;;;31.10;43.10;;;;;;5035535;28;20584;-87
2021/08/11 11:39:29;;;;;;;5.47;4.82;;;30.70;44.40;;;;;;5037941;28;20323;-87
2021/08/11 11:42:07;;;;;;;4.90;4.43;;;30.50;44.00;;;;;;5039773;28;20197;-87
2021/08/11 11:44:49;;;;;;;5.15;4.50;;;30.50;44.20;;;;;;5040185;28;20188;-87
2021/08/11 11:47:17;;;;;;;5.03;4.53;;;30.50;44.00;;;;;;5039558;28;20205;-87
2021/08/11 11:49:43;;;;;;;5.57;4.65;;;30.60;45.10;;;;;;5038353;28;20185;-87
2021/08/11 11:52:16;;;;;;;5.28;4.88;;;30.00;44.30;;;;;;5042039;28;20215;-87
2021/08/11 11:54:47;;;;;;;5.00;4.47;;;30.50;43.50;;;;;;5043487;28;20197;-87
2021/08/11 11:57:15;;;;;;;5.35;4.65;;;30.80;42.60;;;;;;5039795;28;20210;-87
2021/08/11 11:59:43;;;;;;;6.95;5.18;;;31.00;44.70;;;;;;5032227;28;20189;-87
2021/08/11 12:02:17;;;;;;;5.70;5.18;;;30.90;43.70;;;;;;5042045;28;20259;-87
2021/08/11 12:04:54;;;;;;;5.30;4.80;;;31.30;43.20;;;;;;5043795;28;20232;-87
2021/08/11 12:07:27;;;;;;;6.25;5.28;;;31.40;42.30;;;;;;5043865;28;20228;-87
2021/08/11 12:09:53;;;;;;;6.45;5.10;;;31.80;41.40;;;;;;5045563;28;20181;-87
2021/08/11 12:12:19;;;;;;;6.85;4.30;;;31.50;42.50;;;;;;5043839;28;20641;-88
2021/08/11 12:14:45;;;;;;;6.10;4.40;;;31.40;42.00;;;;;;5042847;28;20189;-87
2021/08/11 12:17:30;;;;;;;4.88;4.30;;;31.70;39.50;;;;;;5040811;28;20209;-87
2021/08/11 12:19:57;;;;;;;5.63;5.13;;;31.80;39.70;;;;;;5044640;28;20249;-87
2021/08/11 12:22:36;;;;;;;6.10;4.60;;;31.50;42.30;;;;;;5062452;28;20215;-86
2021/08/11 12:25:02;;;;;;;5.60;5.07;;;32.10;39.60;;;;;;5040068;28;20192;-87
2021/08/11 12:27:28;;;;;;;6.07;4.97;;;32.70;37.90;;;;;;5040801;28;20253;-87
2021/08/11 12:30:20;;;;;;;5.15;4.65;;;32.70;38.10;;;;;;5044947;28;20563;-87
2021/08/11 12:32:45;;;;;;;5.15;4.65;;;32.30;38.40;;;;;;5042005;28;20202;-87
2021/08/11 12:35:12;;;;;;;6.10;5.40;;;32.90;38.20;;;;;;5036614;28;20192;-87
2021/08/11 12:37:47;;;;;;;11.68;5.57;;;32.70;38.40;;;;;;5042015;28;20209;-87
2021/08/11 12:40:26;;;;;;;5.35;4.85;;;32.90;37.40;;;;;;5041488;28;20173;-87
2021/08/11 12:42:55;;;;;;;5.18;4.78;;;32.90;38.20;;;;;;5042143;28;20185;-88
2021/08/11 12:45:21;;;;;;;5.47;5.07;;;33.00;38.30;;;;;;5044886;28;20490;-87
2021/08/11 12:47:47;;;;;;;6.50;4.75;;;33.40;38.00;;;;;;5038693;28;20196;-88
2021/08/11 12:50:17;;;;;;;9.90;5.20;;;33.60;36.90;;;;;;5041980;28;20876;-87
2021/08/11 12:52:56;;;;;;;6.93;5.15;;;33.30;38.20;;;;;;5038848;28;20683;-87